Time;durP1;ratioP1;P1;durP2;ratioP2;P2;SDS_P1;SDS_P2;PMS_P1;PMS_P2;Temp;Humidity;BMP_temperature;BMP_pressure;BME280_temperature;BME280_humidity;BME280_pressure;Samples;Min_cycle;Max_cycle;Signal;HPM_P1;HPM_P2
2021/04/28 00:00:11;;;;;;;26.17;14.00;;;;;;;0.94;56.55;98609.53;2245265;79;21286;-82
2021/04/28 00:03:14;;;;;;;19.50;11.78;;;;;;;0.94;56.48;98608.72;2244301;79;21195;-82
2021/04/28 00:06:16;;;;;;;19.17;11.22;;;;;;;0.94;56.83;98604.84;2243160;79;21189;-83
2021/04/28 00:09:18;;;;;;;19.70;12.75;;;;;;;0.92;56.75;98605.45;2243220;79;21308;-82
2021/04/28 00:12:19;;;;;;;15.05;10.70;;;;;;;0.93;56.79;98603.21;2243222;79;21684;-82
2021/04/28 00:15:22;;;;;;;15.78;10.40;;;;;;;0.90;56.87;98597.80;2243580;79;21151;-82
2021/04/28 00:18:24;;;;;;;14.05;9.35;;;;;;;0.87;57.03;98602.40;2243550;79;21617;-82
2021/04/28 00:21:26;;;;;;;19.80;11.90;;;;;;;0.86;57.24;98604.16;2243666;79;21434;-83
2021/04/28 00:24:27;;;;;;;18.87;10.40;;;;;;;0.88;57.39;98602.74;2243460;79;21104;-82
2021/04/28 00:27:29;;;;;;;15.35;10.63;;;;;;;0.87;57.32;98598.06;2243616;79;21755;-82
2021/04/28 00:30:31;;;;;;;17.73;12.18;;;;;;;0.88;57.40;98598.41;2243859;79;21289;-83
2021/04/28 00:33:33;;;;;;;16.52;10.58;;;;;;;0.89;57.33;98592.30;2244349;79;21792;-83
2021/04/28 00:36:35;;;;;;;13.35;11.28;;;;;;;0.90;57.63;98591.84;2243352;79;21293;-82
2021/04/28 00:39:36;;;;;;;17.55;12.18;;;;;;;0.89;57.49;98591.02;2243556;79;21194;-82
2021/04/28 00:42:38;;;;;;;16.32;11.45;;;;;;;0.88;57.54;98589.38;2243846;79;21320;-81
2021/04/28 00:45:43;;;;;;;16.85;10.18;;;;;;;0.89;57.70;98587.62;2243477;79;21294;-83
2021/04/28 00:48:44;;;;;;;20.65;12.18;;;;;;;0.87;57.80;98587.75;2243551;79;21759;-82
2021/04/28 00:51:46;;;;;;;16.52;11.78;;;;;;;0.86;58.25;98592.55;2243618;79;21166;-83
2021/04/28 00:54:48;;;;;;;15.28;11.43;;;;;;;0.87;58.24;98595.48;2243567;79;21198;-84
2021/04/28 00:57:51;;;;;;;18.52;11.90;;;;;;;0.88;58.07;98585.52;2243475;79;21154;-82
2021/04/28 01:00:52;;;;;;;16.97;11.97;;;;;;;0.89;58.54;98592.78;2243338;79;21316;-84
2021/04/28 01:03:55;;;;;;;17.75;12.73;;;;;;;0.92;58.41;98586.11;2243423;79;21312;-83
2021/04/28 01:06:57;;;;;;;18.60;12.60;;;;;;;0.94;58.56;98589.38;2243557;79;21273;-83
2021/04/28 01:09:58;;;;;;;17.12;12.40;;;;;;;0.94;58.46;98594.53;2243424;79;21138;-83
2021/04/28 01:13:00;;;;;;;17.60;11.90;;;;;;;0.94;58.43;98585.04;2243478;79;21320;-82
2021/04/28 01:16:02;;;;;;;15.63;11.88;;;;;;;0.94;58.49;98585.04;2243233;79;21629;-83
2021/04/28 01:19:04;;;;;;;14.38;10.60;;;;;;;0.95;58.41;98580.70;2243149;79;21166;-83
2021/04/28 01:22:06;;;;;;;18.65;11.97;;;;;;;0.94;58.63;98577.30;2244004;79;21308;-83
2021/04/28 01:25:08;;;;;;;19.57;11.78;;;;;;;0.94;58.81;98581.64;2243194;79;21124;-83
2021/04/28 01:28:10;;;;;;;18.95;12.68;;;;;;;0.97;59.08;98581.39;2243455;79;21292;-82
2021/04/28 01:31:12;;;;;;;16.20;12.25;;;;;;;0.97;58.92;98571.89;2243268;79;21697;-83
2021/04/28 01:34:14;;;;;;;13.28;10.10;;;;;;;0.99;58.82;98579.03;2243484;79;21296;-83
2021/04/28 01:37:16;;;;;;;16.93;10.90;;;;;;;1.01;59.38;98575.88;2243136;79;21166;-83
2021/04/28 01:40:18;;;;;;;15.83;11.45;;;;;;;1.02;59.65;98577.52;2228344;79;21337;-82
2021/04/28 01:43:20;;;;;;;18.10;11.08;;;;;;;1.00;59.15;98576.80;2204094;81;21578;-84
2021/04/28 01:46:22;;;;;;;17.02;11.83;;;;;;;0.99;59.24;98572.58;2204474;81;21292;-84
2021/04/28 01:49:24;;;;;;;15.38;11.65;;;;;;;0.99;59.06;98576.45;2204178;81;21166;-82
2021/04/28 01:52:26;;;;;;;18.23;12.07;;;;;;;1.00;59.08;98574.69;2220520;80;21143;-82
2021/04/28 01:55:27;;;;;;;17.25;10.60;;;;;;;0.98;58.98;98568.84;2220365;80;21598;-83
2021/04/28 01:58:29;;;;;;;16.70;10.95;;;;;;;0.96;59.53;98570.26;2220248;80;21123;-83
2021/04/28 02:01:31;;;;;;;17.75;11.93;;;;;;;0.96;58.90;98572.02;2220227;80;21136;-83
2021/04/28 02:04:32;;;;;;;16.25;13.03;;;;;;;0.97;59.14;98558.19;2220412;80;21316;-84
2021/04/28 02:07:34;;;;;;;17.52;11.85;;;;;;;0.96;59.02;98559.95;2220754;80;21175;-83
2021/04/28 02:10:36;;;;;;;15.48;10.98;;;;;;;0.93;59.41;98555.52;2220502;80;21171;-83
2021/04/28 02:13:38;;;;;;;16.95;12.30;;;;;;;0.90;59.60;98553.98;2220488;80;21159;-83
2021/04/28 02:16:40;;;;;;;16.42;10.13;;;;;;;0.90;59.51;98557.84;2220355;80;21622;-83
2021/04/28 02:19:42;;;;;;;17.55;12.73;;;;;;;0.88;59.27;98550.71;2220639;80;21312;-82
2021/04/28 02:22:44;;;;;;;15.90;11.63;;;;;;;0.87;59.42;98551.66;2220156;80;21171;-83
2021/04/28 02:25:46;;;;;;;14.95;10.32;;;;;;;0.83;59.59;98542.55;2220505;80;21274;-83
2021/04/28 02:28:48;;;;;;;18.48;12.78;;;;;;;0.88;59.53;98557.62;2220242;80;21151;-82
2021/04/28 02:31:49;;;;;;;12.43;8.70;;;;;;;0.88;59.70;98557.16;2220303;80;21780;-82
2021/04/28 02:34:51;;;;;;;19.48;13.30;;;;;;;0.86;59.68;98551.31;2220106;80;21135;-82
2021/04/28 02:37:53;;;;;;;15.88;10.10;;;;;;;0.86;59.81;98547.45;2220401;80;21278;-82
2021/04/28 02:40:55;;;;;;;16.27;9.50;;;;;;;0.83;59.95;98553.67;2220292;80;21179;-82
2021/04/28 02:43:57;;;;;;;21.60;14.13;;;;;;;0.80;60.20;98546.16;2220299;80;21188;-82
2021/04/28 02:46:59;;;;;;;22.77;14.45;;;;;;;0.79;60.17;98546.29;2220364;80;21163;-83
2021/04/28 02:50:00;;;;;;;34.65;18.82;;;;;;;0.74;60.14;98547.14;2220390;80;21139;-82
2021/04/28 02:53:02;;;;;;;31.15;17.15;;;;;;;0.68;60.30;98545.04;2220611;80;21606;-83
2021/04/28 02:56:04;;;;;;;25.37;15.40;;;;;;;0.67;60.26;98542.12;2220483;80;21657;-82
2021/04/28 02:59:06;;;;;;;24.55;15.08;;;;;;;0.64;60.21;98543.63;2220332;80;21175;-82
2021/04/28 03:02:08;;;;;;;21.82;15.15;;;;;;;0.62;60.37;98547.62;2220698;80;21289;-82
2021/04/28 03:05:10;;;;;;;20.00;12.23;;;;;;;0.61;60.69;98543.41;2220764;80;21321;-83
2021/04/28 03:08:12;;;;;;;20.90;12.78;;;;;;;0.58;60.50;98537.69;2220251;80;21281;-82
2021/04/28 03:11:14;;;;;;;34.30;17.42;;;;;;;0.56;60.33;98537.81;2220330;80;21651;-82
2021/04/28 03:14:15;;;;;;;29.70;15.88;;;;;;;0.56;60.65;98541.67;2220306;80;21151;-83
2021/04/28 03:17:17;;;;;;;18.20;11.50;;;;;;;0.53;60.53;98538.85;2220511;80;21696;-84
2021/04/28 03:20:19;;;;;;;23.12;14.45;;;;;;;0.52;60.91;98537.69;2221349;80;21265;-84
2021/04/28 03:23:21;;;;;;;41.73;21.07;;;;;;;0.51;60.60;98545.89;2220487;80;21180;-83
2021/04/28 03:26:23;;;;;;;36.77;19.67;;;;;;;0.52;60.60;98540.27;2220699;80;21748;-82
2021/04/28 03:29:29;;;;;;;34.75;17.80;;;;;;;0.52;60.95;98538.98;2220593;80;21729;-83
2021/04/28 03:32:28;;;;;;;25.40;13.43;;;;;;;0.57;60.64;98534.30;2220094;80;21176;-82
2021/04/28 03:35:30;;;;;;;30.70;16.00;;;;;;;0.69;60.49;98538.47;2220303;80;21148;-83
2021/04/28 03:38:32;;;;;;;27.73;16.95;;;;;;;0.86;60.23;98541.00;2220374;80;21182;-83
2021/04/28 03:41:34;;;;;;;28.47;16.48;;;;;;;1.08;59.95;98544.77;2220257;80;21139;-83
2021/04/28 03:44:36;;;;;;;27.45;16.35;;;;;;;1.34;59.50;98537.97;2220487;80;21147;-83
2021/04/28 03:47:38;;;;;;;31.77;14.50;;;;;;;1.61;59.07;98537.47;2220226;80;21162;-83
2021/04/28 03:50:41;;;;;;;27.95;15.38;;;;;;;1.78;58.63;98545.92;2220581;80;21167;-83
2021/04/28 03:53:43;;;;;;;24.40;13.75;;;;;;;2.12;58.09;98547.78;2220422;80;21166;-83
2021/04/28 03:56:45;;;;;;;20.05;12.45;;;;;;;2.48;56.89;98545.11;2220458;80;21143;-83
2021/04/28 03:59:47;;;;;;;15.10;10.53;;;;;;;2.74;56.81;98548.03;2220545;80;21115;-83
2021/04/28 04:02:49;;;;;;;17.35;12.90;;;;;;;3.18;56.36;98554.91;2220644;80;21625;-84
2021/04/28 04:05:50;;;;;;;17.48;13.25;;;;;;;3.58;54.76;98549.58;2221411;80;21179;-83
2021/04/28 04:08:52;;;;;;;14.45;10.28;;;;;;;4.02;54.92;98556.80;2222038;80;21155;-82
2021/04/28 04:11:54;;;;;;;13.65;10.80;;;;;;;4.49;52.94;98552.39;2222391;80;21144;-81
2021/04/28 04:14:56;;;;;;;15.32;12.43;;;;;;;4.91;51.91;98550.06;2221802;80;21297;-85
2021/04/28 04:17:57;;;;;;;16.20;11.10;;;;;;;5.23;51.79;98556.05;2221174;80;21125;-85
2021/04/28 04:20:59;;;;;;;11.68;10.28;;;;;;;5.57;48.94;98551.42;2220740;80;21575;-84
2021/04/28 04:24:01;;;;;;;13.60;11.08;;;;;;;5.82;48.58;98555.01;2220504;80;21155;-85
2021/04/28 04:27:03;;;;;;;12.90;11.18;;;;;;;6.13;48.76;98547.11;2220434;80;21574;-85
2021/04/28 04:30:05;;;;;;;12.65;10.58;;;;;;;6.31;46.56;98552.23;2220827;80;21139;-81
2021/04/28 04:33:09;;;;;;;13.60;11.60;;;;;;;6.52;45.12;98545.31;2220645;80;21198;-84
2021/04/28 04:36:10;;;;;;;14.60;10.80;;;;;;;6.70;45.25;98542.60;2220739;80;21821;-85
2021/04/28 04:39:12;;;;;;;14.00;11.93;;;;;;;6.91;45.52;98544.75;2220683;80;21151;-86
2021/04/28 04:42:14;;;;;;;15.38;11.15;;;;;;;7.11;46.79;98555.19;2220478;80;21601;-83
2021/04/28 04:45:16;;;;;;;13.10;11.03;;;;;;;7.07;45.31;98544.78;2220560;80;21142;-84
2021/04/28 04:48:18;;;;;;;16.10;11.38;;;;;;;7.11;45.96;98547.38;2220685;80;21152;-83
2021/04/28 04:51:19;;;;;;;16.02;11.53;;;;;;;7.07;45.40;98552.10;2220828;80;21254;-84
2021/04/28 04:54:21;;;;;;;13.45;10.88;;;;;;;7.08;45.77;98549.83;2221451;80;21297;-83
2021/04/28 04:57:23;;;;;;;14.28;10.13;;;;;;;7.09;44.25;98553.23;2220904;80;21277;-82
2021/04/28 05:00:25;;;;;;;24.57;11.38;;;;;;;7.18;45.21;98554.88;2220525;80;21147;-83
2021/04/28 05:03:27;;;;;;;11.38;10.18;;;;;;;7.23;44.17;98546.59;2220647;80;21171;-83
2021/04/28 05:06:29;;;;;;;15.45;10.20;;;;;;;7.20;44.79;98551.61;2220549;80;21161;-83
2021/04/28 05:09:31;;;;;;;13.78;9.43;;;;;;;7.12;43.41;98538.59;2220646;80;21146;-86
2021/04/28 05:12:33;;;;;;;12.55;9.90;;;;;;;7.11;44.15;98542.17;2220513;80;21136;-81
2021/04/28 05:15:34;;;;;;;12.47;9.43;;;;;;;7.18;44.18;98540.55;2220669;80;21162;-82
2021/04/28 05:18:36;;;;;;;13.93;9.70;;;;;;;7.34;44.26;98544.47;2220442;80;21115;-81
2021/04/28 05:21:38;;;;;;;12.65;9.23;;;;;;;7.45;43.68;98542.52;2221345;80;21112;-82
2021/04/28 05:24:40;;;;;;;11.48;9.75;;;;;;;7.53;44.19;98539.91;2220378;80;21166;-82
2021/04/28 05:27:43;;;;;;;11.00;7.97;;;;;;;7.64;43.42;98542.98;2220432;80;21171;-81
2021/04/28 05:30:44;;;;;;;15.35;9.45;;;;;;;7.79;43.44;98541.02;2220411;80;21752;-80
2021/04/28 05:33:46;;;;;;;9.43;7.70;;;;;;;7.95;43.79;98547.02;2220376;80;21174;-82
2021/04/28 05:36:48;;;;;;;11.30;8.05;;;;;;;8.14;42.86;98550.23;2220640;80;21301;-79
2021/04/28 05:39:50;;;;;;;8.90;8.05;;;;;;;8.24;42.07;98543.02;2221058;80;21160;-80
2021/04/28 05:42:52;;;;;;;14.43;9.70;;;;;;;8.38;42.63;98552.77;2220282;80;21178;-82
2021/04/28 05:45:54;;;;;;;12.25;9.35;;;;;;;8.53;43.10;98553.69;2220008;80;21273;-85
2021/04/28 05:48:56;;;;;;;12.35;9.68;;;;;;;8.65;42.65;98557.22;2220401;80;21465;-85
2021/04/28 05:51:58;;;;;;;13.48;9.23;;;;;;;8.70;42.07;98558.34;2220140;80;21268;-81
2021/04/28 05:55:00;;;;;;;12.35;10.13;;;;;;;8.73;41.91;98553.27;2220166;80;21571;-83
2021/04/28 05:58:03;;;;;;;14.70;10.15;;;;;;;8.81;42.39;98561.05;2220003;80;21741;-82
2021/04/28 06:01:05;;;;;;;12.63;8.90;;;;;;;8.92;42.43;98563.27;2219984;80;21297;-82
2021/04/28 06:04:07;;;;;;;15.00;10.98;;;;;;;8.94;41.70;98567.00;2219947;80;21649;-83
2021/04/28 06:07:08;;;;;;;12.18;9.05;;;;;;;8.87;41.72;98565.59;2220250;80;21269;-84
2021/04/28 06:10:10;;;;;;;17.32;11.38;;;;;;;8.80;41.08;98558.13;2219980;80;21155;-84
2021/04/28 06:13:12;;;;;;;13.85;10.53;;;;;;;8.71;40.62;98566.98;2219801;80;21679;-85
2021/04/28 06:16:15;;;;;;;16.07;11.60;;;;;;;8.65;41.94;98560.64;2220252;80;21709;-82
2021/04/28 06:19:17;;;;;;;16.57;9.95;;;;;;;8.68;41.98;98551.15;2219807;80;21147;-84
2021/04/28 06:22:19;;;;;;;12.58;10.10;;;;;;;8.65;41.60;98558.02;2219931;80;21187;-85
2021/04/28 06:25:21;;;;;;;12.18;8.45;;;;;;;8.64;41.24;98555.09;2220540;80;21312;-86
2021/04/28 06:28:22;;;;;;;15.60;9.70;;;;;;;8.67;40.88;98553.44;2220118;80;21749;-84
2021/04/28 06:31:24;;;;;;;13.15;8.53;;;;;;;8.70;41.21;98542.67;2220103;80;21187;-85
2021/04/28 06:34:26;;;;;;;13.48;8.95;;;;;;;8.77;40.84;98545.39;2220086;80;21770;-86
2021/04/28 06:37:28;;;;;;;9.68;8.05;;;;;;;8.78;41.45;98546.55;2220199;80;21150;-84
2021/04/28 06:40:30;;;;;;;13.18;10.45;;;;;;;8.89;40.87;98549.75;2220014;80;21192;-84
2021/04/28 06:43:32;;;;;;;12.05;9.15;;;;;;;8.92;41.55;98549.40;2220416;80;21274;-84
2021/04/28 06:46:34;;;;;;;13.62;9.23;;;;;;;8.93;41.34;98547.91;2220198;80;21266;-84
2021/04/28 06:49:36;;;;;;;15.20;10.25;;;;;;;9.01;41.33;98545.25;2220097;80;21269;-84
2021/04/28 06:52:40;;;;;;;11.83;9.15;;;;;;;9.00;40.24;98551.47;2219914;80;21289;-84
2021/04/28 06:55:41;;;;;;;10.40;7.20;;;;;;;8.98;41.23;98553.45;2220066;80;21709;-85
2021/04/28 06:58:45;;;;;;;14.07;7.85;;;;;;;9.02;40.33;98549.98;2220259;80;21718;-85
2021/04/28 07:01:51;;;;;;;12.75;6.75;;;;;;;9.05;39.93;98548.32;2220520;80;21152;-86
2021/04/28 07:04:50;;;;;;;7.90;5.75;;;;;;;9.10;38.76;98550.75;2219814;80;21751;-84
2021/04/28 07:07:52;;;;;;;11.05;5.45;;;;;;;9.24;38.84;98544.46;2191314;80;21292;-85
2021/04/28 07:10:54;;;;;;;6.42;5.25;;;;;;;9.36;38.33;98541.25;2220133;80;21337;-85
2021/04/28 07:13:56;;;;;;;10.18;6.05;;;;;;;9.51;38.23;98549.61;2219949;80;21136;-84
2021/04/28 07:16:58;;;;;;;8.68;5.28;;;;;;;9.61;37.84;98544.48;2220096;80;21274;-85
2021/04/28 07:19:59;;;;;;;7.55;5.55;;;;;;;9.63;36.70;98535.14;2220052;80;21281;-85
2021/04/28 07:23:02;;;;;;;6.78;5.10;;;;;;;9.62;36.78;98550.02;2221257;80;21282;-85
2021/04/28 07:26:04;;;;;;;7.10;5.53;;;;;;;9.71;37.04;98546.02;2191319;80;21448;-85
2021/04/28 07:29:05;;;;;;;6.67;5.10;;;;;;;9.77;36.31;98547.41;2220100;80;21277;-85
2021/04/28 07:32:07;;;;;;;6.30;5.50;;;;;;;9.96;37.75;98542.16;2220097;80;21713;-85
2021/04/28 07:35:09;;;;;;;8.00;5.10;;;;;;;10.14;37.23;98541.80;2220215;80;21140;-86
2021/04/28 07:38:11;;;;;;;6.30;5.58;;;;;;;10.26;37.39;98543.02;2220195;80;21285;-86
2021/04/28 07:41:14;;;;;;;6.97;5.10;;;;;;;10.43;37.55;98540.53;2220002;80;21745;-86
2021/04/28 07:44:15;;;;;;;5.67;4.97;;;;;;;10.62;37.20;98539.64;2220259;80;21583;-85
2021/04/28 07:47:18;;;;;;;7.37;5.95;;;;;;;10.73;36.50;98544.39;2219930;80;21278;-86
2021/04/28 07:50:19;;;;;;;6.85;5.50;;;;;;;10.79;36.01;98543.16;2220152;80;21154;-85
2021/04/28 07:53:21;;;;;;;8.68;5.58;;;;;;;10.87;36.28;98541.41;2220554;80;21288;-86
2021/04/28 07:56:23;;;;;;;7.12;5.20;;;;;;;10.98;36.31;98539.13;2219916;80;21281;-86
2021/04/28 07:59:26;;;;;;;8.78;5.65;;;;;;;11.06;35.91;98535.09;2220204;80;21757;-84
2021/04/28 08:02:27;;;;;;;8.00;5.20;;;;;;;11.05;35.52;98533.44;2220695;80;21135;-83
2021/04/28 08:05:29;;;;;;;7.75;5.22;;;;;;;11.04;35.75;98538.87;2221543;80;21297;-84
2021/04/28 08:08:31;;;;;;;6.95;6.25;;;;;;;11.01;34.96;98540.06;2221153;80;21293;-86
2021/04/28 08:11:33;;;;;;;8.35;5.55;;;;;;;11.06;35.01;98532.94;2222429;80;21320;-84
2021/04/28 08:14:35;;;;;;;6.00;4.37;;;;;;;11.07;34.52;98538.02;2220511;80;21313;-85
2021/04/28 08:17:37;;;;;;;8.15;5.50;;;;;;;11.01;33.02;98541.88;2220662;80;21305;-85
2021/04/28 08:20:38;;;;;;;6.83;5.50;;;;;;;11.00;34.03;98533.20;2220278;80;21162;-85
2021/04/28 08:23:42;;;;;;;6.10;4.92;;;;;;;11.05;34.40;98530.81;2220114;80;21321;-85
2021/04/28 08:26:44;;;;;;;5.12;4.62;;;;;;;11.10;34.66;98530.27;2220210;80;21749;-84
2021/04/28 08:29:46;;;;;;;6.33;5.12;;;;;;;11.11;32.89;98530.08;2220248;80;21591;-85
2021/04/28 08:32:48;;;;;;;6.03;5.47;;;;;;;11.10;33.33;98533.70;2219947;80;21285;-85
2021/04/28 08:35:50;;;;;;;8.98;5.15;;;;;;;11.13;33.32;98522.53;2191620;80;21766;-85
2021/04/28 08:38:52;;;;;;;8.08;4.95;;;;;;;11.25;34.51;98528.91;2220800;80;21269;-86
2021/04/28 08:41:53;;;;;;;6.40;4.67;;;;;;;11.46;34.52;98525.45;2219983;80;21301;-85
2021/04/28 08:44:55;;;;;;;5.22;4.72;;;;;;;11.60;34.14;98524.53;2220238;80;21277;-85
2021/04/28 08:47:58;;;;;;;14.43;5.10;;;;;;;11.72;33.93;98522.22;2219964;80;21127;-87
2021/04/28 08:50:59;;;;;;;6.65;4.70;;;;;;;11.78;34.41;98514.37;2219941;80;21131;-88
2021/04/28 08:54:01;;;;;;;6.90;4.70;;;;;;;11.81;33.02;98507.48;2220157;80;21269;-87
2021/04/28 08:57:03;;;;;;;5.15;4.62;;;;;;;11.79;32.10;98504.69;2220148;80;21317;-87
2021/04/28 09:00:05;;;;;;;7.58;4.97;;;;;;;11.80;33.57;98499.81;2220318;80;21337;-85
2021/04/28 09:03:06;;;;;;;7.65;4.30;;;;;;;11.87;33.54;98505.88;2220179;80;21207;-85
2021/04/28 09:06:13;;;;;;;7.33;5.92;;;;;;;11.85;33.52;98498.72;2219868;80;21317;-85
2021/04/28 09:09:12;;;;;;;5.22;4.72;;;;;;;11.87;33.10;98501.45;2219266;80;21329;-85
2021/04/28 09:12:14;;;;;;;6.22;4.65;;;;;;;11.92;33.08;98499.58;2220049;80;21282;-87
2021/04/28 09:15:16;;;;;;;5.00;4.60;;;;;;;12.03;33.79;98491.66;2219967;80;21205;-88
2021/04/28 09:18:18;;;;;;;5.50;4.62;;;;;;;12.13;33.99;98485.55;2220175;80;21570;-85
2021/04/28 09:21:20;;;;;;;5.83;4.40;;;;;;;12.25;33.59;98486.60;2219792;80;21135;-87
2021/04/28 09:24:22;;;;;;;5.00;4.47;;;;;;;12.34;33.12;98489.36;2219957;80;21182;-86
2021/04/28 09:27:24;;;;;;;4.62;4.17;;;;;;;12.40;33.33;98478.09;2220199;80;21325;-85
2021/04/28 09:30:27;;;;;;;5.12;4.33;;;;;;;12.51;33.11;98481.45;2220980;80;21297;-84
2021/04/28 09:33:29;;;;;;;5.17;4.53;;;;;;;12.55;31.90;98480.58;2191735;80;21301;-85
2021/04/28 09:36:32;;;;;;;7.03;4.22;;;;;;;12.48;32.57;98476.60;2219514;80;21309;-85
2021/04/28 09:39:34;;;;;;;6.00;5.00;;;;;;;12.57;33.08;98469.87;2220858;80;21326;-85
2021/04/28 09:42:36;;;;;;;4.87;4.45;;;;;;;12.67;33.04;98471.61;2219939;80;21139;-85
2021/04/28 09:45:38;;;;;;;5.25;4.08;;;;;;;12.70;32.76;98460.19;2220080;80;21737;-86
2021/04/28 09:48:40;;;;;;;5.15;4.22;;;;;;;12.74;32.08;98457.48;2220022;80;21111;-86
2021/04/28 09:51:42;;;;;;;6.03;4.67;;;;;;;12.77;31.99;98461.52;2220032;80;21139;-85
2021/04/28 09:54:44;;;;;;;5.83;5.00;;;;;;;12.80;32.22;98451.44;2220271;80;21209;-85
2021/04/28 09:57:45;;;;;;;5.75;4.72;;;;;;;12.83;32.05;98450.73;2219887;80;21273;-85
2021/04/28 10:00:47;;;;;;;8.03;5.53;;;;;;;12.75;30.98;98449.91;2219990;80;21261;-86
2021/04/28 10:03:49;;;;;;;4.65;4.25;;;;;;;12.80;32.49;98446.66;2220598;80;21329;-84
2021/04/28 10:06:52;;;;;;;5.12;4.05;;;;;;;12.89;31.69;98446.77;2220867;80;21578;-85
2021/04/28 10:09:54;;;;;;;4.75;3.77;;;;;;;12.99;32.41;98446.41;2220171;80;21291;-86
2021/04/28 10:12:55;;;;;;;5.62;4.42;;;;;;;13.10;32.61;98445.80;2220438;80;21112;-87
2021/04/28 10:15:57;;;;;;;6.35;4.47;;;;;;;13.18;32.02;98441.66;2220357;80;21116;-87
2021/04/28 10:18:59;;;;;;;8.40;4.60;;;;;;;13.25;31.24;98436.41;2220474;80;21127;-87
2021/04/28 10:22:02;;;;;;;5.08;4.60;;;;;;;13.27;31.99;98437.84;2220559;80;21151;-85
2021/04/28 10:25:04;;;;;;;5.40;4.90;;;;;;;13.33;31.88;98433.58;2220268;80;21737;-87
2021/04/28 10:28:06;;;;;;;6.83;5.90;;;;;;;13.41;32.38;98433.88;2220384;80;21120;-85
2021/04/28 10:31:08;;;;;;;6.95;5.45;;;;;;;13.44;31.49;98436.92;2193723;80;21187;-84
2021/04/28 10:34:10;;;;;;;4.85;4.42;;;;;;;13.36;30.55;98423.48;2220477;80;21313;-85
2021/04/28 10:37:12;;;;;;;5.53;4.37;;;;;;;13.31;31.73;98428.53;2220321;80;21781;-86
2021/04/28 10:40:14;;;;;;;5.28;4.75;;;;;;;13.41;31.79;98422.05;2220347;80;21450;-86
2021/04/28 10:43:17;;;;;;;6.85;5.05;;;;;;;13.48;31.79;98419.71;2220147;80;21457;-85
2021/04/28 10:46:19;;;;;;;5.58;4.60;;;;;;;13.52;31.41;98413.02;2220122;80;21154;-86
2021/04/28 10:49:21;;;;;;;5.90;5.30;;;;;;;13.53;31.35;98419.91;2220534;80;21293;-84
2021/04/28 10:52:23;;;;;;;10.75;4.92;;;;;;;13.53;31.16;98405.93;2220293;80;21554;-85
2021/04/28 10:55:25;;;;;;;5.20;4.10;;;;;;;13.50;31.10;98397.14;2220587;80;21688;-86
2021/04/28 10:58:27;;;;;;;4.55;4.15;;;;;;;13.55;31.09;98411.31;2220813;80;21309;-85
2021/04/28 11:01:32;;;;;;;7.17;5.15;;;;;;;13.61;30.99;98400.45;2220545;80;21124;-87
2021/04/28 11:04:34;;;;;;;6.00;4.70;;;;;;;13.65;31.15;98402.48;2220682;80;21170;-86
2021/04/28 11:07:36;;;;;;;10.75;4.78;;;;;;;13.70;31.44;98394.46;2220536;80;21161;-87
2021/04/28 11:10:38;;;;;;;6.15;4.92;;;;;;;13.74;31.35;98393.85;2221115;80;21322;-86
2021/04/28 11:13:39;;;;;;;5.12;4.47;;;;;;;13.79;30.35;98385.32;2220541;80;21147;-88
2021/04/28 11:16:41;;;;;;;5.00;4.47;;;;;;;13.74;30.96;98385.96;2220608;80;21159;-84
2021/04/28 11:19:43;;;;;;;5.72;5.12;;;;;;;13.78;30.38;98388.46;2220779;80;21372;-85
2021/04/28 11:22:45;;;;;;;5.53;4.78;;;;;;;13.87;31.19;98382.46;2220775;80;21309;-85
2021/04/28 11:25:47;;;;;;;5.72;5.17;;;;;;;13.95;30.96;98373.02;2220426;80;21134;-85
2021/04/28 11:28:49;;;;;;;7.33;5.10;;;;;;;14.01;30.04;98377.45;2220744;80;21301;-85
2021/04/28 11:31:51;;;;;;;5.75;4.72;;;;;;;14.02;30.67;98372.48;2220845;80;21309;-86
2021/04/28 11:34:53;;;;;;;7.53;5.12;;;;;;;14.08;30.82;98365.08;2221426;80;21297;-85
2021/04/28 11:37:54;;;;;;;8.25;4.85;;;;;;;14.15;29.71;98371.09;2221084;80;21329;-87
2021/04/28 11:41:00;;;;;;;5.28;4.60;;;;;;;14.14;29.53;98368.16;2220991;80;21325;-87
2021/04/28 11:44:01;;;;;;;5.80;5.20;;;;;;;14.12;29.95;98364.95;2219966;80;21136;-86
2021/04/28 11:47:03;;;;;;;8.93;5.55;;;;;;;14.10;29.47;98361.72;2220551;80;21159;-88
2021/04/28 11:50:05;;;;;;;8.33;5.53;;;;;;;14.09;29.62;98351.41;2220359;80;21147;-84
2021/04/28 11:53:07;;;;;;;4.65;4.22;;;;;;;13.93;28.44;98342.97;2193781;80;21127;-86
2021/04/28 11:56:10;;;;;;;5.90;4.62;;;;;;;13.93;28.44;98342.97;2220240;80;21598;-85
2021/04/28 11:59:11;;;;;;;5.45;4.78;;;;;;;14.01;28.50;98347.70;2222037;80;21143;-84
2021/04/28 12:02:13;;;;;;;4.60;4.20;;;;;;;14.05;28.86;98343.10;2223322;80;21159;-83
2021/04/28 12:05:15;;;;;;;5.08;4.62;;;;;;;14.08;28.67;98336.60;2223789;80;21198;-84
2021/04/28 12:08:17;;;;;;;5.80;5.30;;;;;;;13.99;28.04;98323.39;2221710;80;21305;-85
2021/04/28 12:11:19;;;;;;;4.45;4.10;;;;;;;13.95;27.63;98332.22;2221272;80;21761;-85
2021/04/28 12:14:21;;;;;;;5.37;4.70;;;;;;;13.98;28.87;98330.48;2220555;80;21155;-85
2021/04/28 12:17:23;;;;;;;4.90;4.47;;;;;;;14.03;28.85;98331.98;2220505;80;21680;-85
2021/04/28 12:20:25;;;;;;;5.40;4.28;;;;;;;14.08;27.95;98326.91;2220679;80;21143;-85
2021/04/28 12:23:27;;;;;;;5.90;4.47;;;;;;;14.12;28.73;98326.77;2220642;80;21753;-87
2021/04/28 12:26:29;;;;;;;7.58;4.90;;;;;;;14.15;28.89;98317.13;2220342;80;21171;-86
2021/04/28 12:29:30;;;;;;;6.85;4.35;;;;;;;14.20;28.63;98318.63;2220749;80;21321;-86
2021/04/28 12:32:32;;;;;;;5.80;4.83;;;;;;;14.17;26.71;98318.22;2220701;80;21757;-85
2021/04/28 12:35:36;;;;;;;5.45;4.85;;;;;;;14.13;28.43;98310.46;2220480;80;21174;-87
2021/04/28 12:38:38;;;;;;;6.90;4.17;;;;;;;14.13;28.44;98304.69;2220738;80;21698;-85
2021/04/28 12:41:40;;;;;;;7.87;4.60;;;;;;;14.11;28.26;98307.23;2220709;80;21309;-86
2021/04/28 12:44:42;;;;;;;7.22;4.72;;;;;;;14.08;28.30;98310.27;2220175;80;21172;-87
2021/04/28 12:47:44;;;;;;;30.88;6.78;;;;;;;14.14;29.05;98303.66;2220333;80;21675;-85
2021/04/28 12:50:46;;;;;;;5.15;4.58;;;;;;;14.20;28.20;98296.75;2220264;80;21167;-85
2021/04/28 12:53:48;;;;;;;4.35;3.98;;;;;;;14.21;28.16;98296.53;2220148;80;21312;-86
2021/04/28 12:56:50;;;;;;;11.25;4.92;;;;;;;14.23;28.72;98289.22;2220462;80;21320;-87
2021/04/28 12:59:52;;;;;;;5.20;4.70;;;;;;;14.31;28.92;98283.41;2220174;80;21780;-86
2021/04/28 13:02:55;;;;;;;5.53;4.33;;;;;;;14.38;28.96;98282.34;2220162;80;21195;-86
2021/04/28 13:05:57;;;;;;;5.35;4.85;;;;;;;14.41;28.91;98277.16;2220679;80;21167;-86
2021/04/28 13:08:58;;;;;;;15.70;5.72;;;;;;;14.42;28.84;98276.13;2220471;80;21309;-86
2021/04/28 13:12:00;;;;;;;4.80;4.40;;;;;;;14.45;28.68;98274.44;2220166;80;21305;-85
2021/04/28 13:15:03;;;;;;;5.20;4.72;;;;;;;14.44;28.59;98271.45;2220399;80;21285;-87
2021/04/28 13:18:05;;;;;;;5.95;5.33;;;;;;;14.40;28.26;98263.18;2220152;80;21322;-88
2021/04/28 13:21:07;;;;;;;16.82;6.03;;;;;;;14.37;28.32;98263.62;2220243;80;21317;-88
2021/04/28 13:24:09;;;;;;;5.80;4.17;;;;;;;14.38;28.93;98260.47;2219982;80;21313;-86
2021/04/28 13:27:11;;;;;;;5.83;4.33;;;;;;;14.42;28.97;98265.59;2220067;80;21293;-87
2021/04/28 13:30:13;;;;;;;6.00;4.87;;;;;;;14.47;29.16;98264.48;2220428;80;21606;-86
2021/04/28 13:33:16;;;;;;;5.72;4.65;;;;;;;14.50;29.08;98256.95;2220269;80;21138;-88
2021/04/28 13:36:17;;;;;;;5.25;4.80;;;;;;;14.54;29.13;98250.75;2220708;80;21261;-85
2021/04/28 13:39:19;;;;;;;4.75;4.25;;;;;;;14.53;28.44;98245.67;2221626;80;21587;-86
2021/04/28 13:42:21;;;;;;;4.45;4.08;;;;;;;14.50;28.83;98248.23;2220891;80;21325;-85
2021/04/28 13:45:22;;;;;;;5.08;4.40;;;;;;;14.49;28.51;98247.43;2220531;80;21182;-85
2021/04/28 13:48:24;;;;;;;5.28;4.78;;;;;;;14.42;27.92;98249.28;2220450;80;21625;-87
2021/04/28 13:51:26;;;;;;;5.62;5.10;;;;;;;14.35;28.19;98239.81;2220587;80;21689;-86
2021/04/28 13:54:28;;;;;;;6.40;5.20;;;;;;;14.32;27.62;98244.20;2220514;80;21362;-86
2021/04/28 13:57:30;;;;;;;6.12;5.17;;;;;;;14.27;28.00;98242.23;2220512;80;21201;-86
2021/04/28 14:00:32;;;;;;;4.78;4.37;;;;;;;14.27;28.31;98236.16;2221457;80;21142;-85
2021/04/28 14:03:34;;;;;;;5.35;4.78;;;;;;;14.29;28.23;98234.11;2221697;80;21229;-85
2021/04/28 14:06:36;;;;;;;6.42;5.50;;;;;;;14.28;28.16;98236.45;2221576;80;21296;-86
2021/04/28 14:09:38;;;;;;;7.12;5.08;;;;;;;14.24;28.08;98230.27;2220125;80;21253;-86